createdAt,value
2023-03-30T00:00:52.097Z,11.78
2023-03-30T00:03:19.732Z,11.62
2023-03-30T00:05:46.876Z,11.78
2023-03-30T00:08:14.698Z,11.85
2023-03-30T00:10:45.106Z,11.84
2023-03-30T00:13:13.280Z,11.67
2023-03-30T00:15:41.378Z,11.59
2023-03-30T00:18:09.485Z,11.64
2023-03-30T00:20:37.846Z,11.71
2023-03-30T00:23:04.817Z,11.79
2023-03-30T00:25:31.694Z,11.75
2023-03-30T00:27:58.519Z,11.83
2023-03-30T00:30:26.138Z,11.72
2023-03-30T00:32:54.069Z,11.75
2023-03-30T00:35:21.211Z,11.74
2023-03-30T00:37:49.803Z,11.79
2023-03-30T00:40:20.304Z,11.80
2023-03-30T00:42:47.688Z,11.73
2023-03-30T00:45:18.109Z,11.63
2023-03-30T00:47:54.600Z,11.65
2023-03-30T00:50:22.580Z,11.53
2023-03-30T00:52:52.528Z,11.28
2023-03-30T00:55:21.784Z,11.32
2023-03-30T00:57:49.685Z,11.28
2023-03-30T01:00:18.885Z,11.01
2023-03-30T01:02:57.425Z,11.03
2023-03-30T01:05:25.199Z,10.88
2023-03-30T01:07:52.275Z,11.18
2023-03-30T01:10:19.456Z,11.39
2023-03-30T01:12:46.289Z,11.43
2023-03-30T01:15:13.543Z,11.54
2023-03-30T01:17:53.392Z,11.56
2023-03-30T01:20:34.749Z,11.58
2023-03-30T01:23:35.601Z,11.44
2023-03-30T01:26:20.838Z,11.50
2023-03-30T01:28:53.433Z,11.52
2023-03-30T01:31:27.503Z,11.41
2023-03-30T01:34:16.314Z,11.37
2023-03-30T01:37:06.593Z,11.44
2023-03-30T01:39:48.584Z,11.37
2023-03-30T01:42:41.777Z,11.39
2023-03-30T01:45:42.427Z,11.50
2023-03-30T01:48:14.025Z,11.47
2023-03-30T01:50:43.385Z,11.51
2023-03-30T01:53:27.266Z,11.46
2023-03-30T01:56:06.355Z,11.43
2023-03-30T01:58:38.154Z,11.50
2023-03-30T02:01:07.291Z,11.44
2023-03-30T02:03:39.125Z,11.40
2023-03-30T02:06:14.693Z,11.52
2023-03-30T02:08:41.695Z,11.52
2023-03-30T02:11:09.242Z,11.43
2023-03-30T02:13:36.913Z,11.45
2023-03-30T02:16:07.716Z,11.14
2023-03-30T02:18:38.411Z,10.65
2023-03-30T02:21:05.766Z,10.92
2023-03-30T02:23:36.054Z,11.04
2023-03-30T02:26:03.019Z,11.02
2023-03-30T02:28:29.820Z,11.00
2023-03-30T02:30:57.067Z,11.15
2023-03-30T02:34:04.708Z,11.25
2023-03-30T02:36:45.596Z,11.33
2023-03-30T02:39:39.580Z,11.17
2023-03-30T02:42:20.725Z,11.17
2023-03-30T02:44:58.603Z,11.31
2023-03-30T02:47:34.450Z,11.31
2023-03-30T02:50:18.240Z,11.44
2023-03-30T02:53:10.625Z,11.48
2023-03-30T02:56:04.082Z,11.45
2023-03-30T02:59:03.923Z,11.26
2023-03-30T03:01:48.317Z,11.47
2023-03-30T03:04:17.678Z,11.42
2023-03-30T03:07:20.939Z,11.34
2023-03-30T03:09:48.294Z,11.30
2023-03-30T03:12:15.218Z,11.40
2023-03-30T03:14:43.453Z,11.50
2023-03-30T03:17:13.908Z,11.46
2023-03-30T03:19:44.803Z,11.30
2023-03-30T03:22:12.052Z,10.87
2023-03-30T03:24:39.868Z,11.18
2023-03-30T03:27:27.580Z,11.18
2023-03-30T03:30:05.872Z,11.20
2023-03-30T03:32:39.092Z,11.27
2023-03-30T03:35:06.187Z,11.28
2023-03-30T03:37:34.445Z,11.30
2023-03-30T03:40:01.409Z,11.42
2023-03-30T03:42:29.038Z,11.36
2023-03-30T03:45:11.624Z,11.44
2023-03-30T03:47:51.721Z,11.39
2023-03-30T03:50:23.864Z,11.41
2023-03-30T03:52:51.989Z,11.53
2023-03-30T03:55:18.961Z,11.57
2023-03-30T03:57:49.695Z,11.52
2023-03-30T04:00:16.758Z,11.47
2023-03-30T04:02:46.906Z,11.43
2023-03-30T04:05:13.844Z,11.41
2023-03-30T04:07:40.691Z,11.41
2023-03-30T04:10:08.146Z,11.44
2023-03-30T04:12:44.075Z,11.29
2023-03-30T04:15:45.629Z,11.17
2023-03-30T04:18:33.698Z,11.15
2023-03-30T04:21:13.470Z,11.14
2023-03-30T04:23:58.762Z,11.25
2023-03-30T04:26:49.128Z,11.24
2023-03-30T04:29:29.996Z,11.02
2023-03-30T04:32:20.854Z,11.21
2023-03-30T04:34:56.049Z,11.09
2023-03-30T04:37:38.589Z,11.20
2023-03-30T04:40:17.680Z,11.28
2023-03-30T04:43:04.769Z,11.29
2023-03-30T04:45:48.534Z,11.09
2023-03-30T04:48:33.070Z,10.99
2023-03-30T04:51:09.023Z,11.06
2023-03-30T04:53:54.452Z,11.02
2023-03-30T04:56:41.027Z,11.18
2023-03-30T04:59:37.900Z,11.18
2023-03-30T05:02:37.335Z,11.05
2023-03-30T05:05:07.570Z,11.30
2023-03-30T05:08:06.782Z,11.21
2023-03-30T05:10:47.342Z,11.23
2023-03-30T05:13:26.136Z,11.35
2023-03-30T05:16:05.510Z,11.28
2023-03-30T05:19:04.814Z,11.37
2023-03-30T05:21:49.657Z,11.38
2023-03-30T05:24:34.667Z,11.39
2023-03-30T05:27:33.966Z,11.30
2023-03-30T05:30:23.668Z,11.17
2023-03-30T05:33:10.325Z,11.14
2023-03-30T05:36:09.994Z,11.16
2023-03-30T05:38:48.150Z,11.28
2023-03-30T05:41:31.921Z,11.14
2023-03-30T05:44:11.521Z,11.31
2023-03-30T05:47:10.672Z,11.28
2023-03-30T05:50:03.242Z,11.38
2023-03-30T05:52:36.661Z,11.43
2023-03-30T05:55:24.179Z,11.34
2023-03-30T05:58:12.282Z,11.51
2023-03-30T06:01:06.152Z,11.42
2023-03-30T06:03:39.431Z,11.51
2023-03-30T06:06:08.349Z,11.30
2023-03-30T06:08:35.885Z,11.36
2023-03-30T06:11:05.091Z,11.15
2023-03-30T06:13:43.336Z,11.18
2023-03-30T06:16:10.257Z,11.38
2023-03-30T06:18:37.961Z,11.49
2023-03-30T06:21:08.569Z,11.65
2023-03-30T06:23:49.759Z,11.69
2023-03-30T06:26:20.756Z,11.57
2023-03-30T06:28:48.688Z,11.78
2023-03-30T06:31:15.667Z,11.74
2023-03-30T06:33:43.810Z,11.91
2023-03-30T06:36:15.016Z,11.83
2023-03-30T06:38:44.948Z,11.56
2023-03-30T06:41:12.958Z,11.70
2023-03-30T06:43:43.360Z,11.67
2023-03-30T06:46:16.085Z,11.98
2023-03-30T06:48:48.686Z,11.85
2023-03-30T06:51:50.996Z,11.98
2023-03-30T06:54:20.537Z,12.11
2023-03-30T06:56:54.968Z,12.12
2023-03-30T06:59:23.268Z,12.23
2023-03-30T07:02:22.445Z,12.21
2023-03-30T07:05:03.282Z,12.17
2023-03-30T07:07:43.316Z,12.18
2023-03-30T07:10:11.819Z,12.36
2023-03-30T07:12:39.879Z,12.37
2023-03-30T07:15:08.265Z,12.59
2023-03-30T07:17:36.621Z,12.63
2023-03-30T07:20:06.149Z,12.89
2023-03-30T07:22:34.985Z,12.79
2023-03-30T07:25:02.095Z,12.77
2023-03-30T07:27:29.406Z,12.99
2023-03-30T07:30:07.200Z,13.08
2023-03-30T07:32:41.874Z,13.29
2023-03-30T07:35:09.689Z,13.40
2023-03-30T07:37:40.183Z,13.59
2023-03-30T07:40:09.303Z,13.60
2023-03-30T07:42:37.367Z,13.92
2023-03-30T07:45:05.325Z,14.35
2023-03-30T07:47:32.420Z,14.57
2023-03-30T07:49:59.394Z,14.85
2023-03-30T07:52:27.731Z,14.82
2023-03-30T07:55:01.942Z,15.36
2023-03-30T07:57:42.565Z,15.77
2023-03-30T08:00:17.084Z,16.12
2023-03-30T08:03:04.967Z,16.35
2023-03-30T08:05:32.025Z,16.68
2023-03-30T08:08:19.320Z,17.21
2023-03-30T08:10:47.395Z,17.55
2023-03-30T08:13:15.350Z,17.86
2023-03-30T08:15:43.550Z,17.96
2023-03-30T08:18:13.173Z,17.88
2023-03-30T08:20:41.710Z,17.92
2023-03-30T08:23:12.249Z,18.03
2023-03-30T08:25:39.270Z,18.28
2023-03-30T08:28:09.255Z,18.66
2023-03-30T08:30:36.072Z,19.04
2023-03-30T08:33:03.437Z,19.31
2023-03-30T08:35:30.503Z,19.43
2023-03-30T08:37:57.388Z,19.37
2023-03-30T08:40:24.400Z,18.88
2023-03-30T08:43:21.620Z,19.25
2023-03-30T08:45:48.607Z,19.34
2023-03-30T08:48:23.934Z,19.30
2023-03-30T08:50:57.491Z,19.25
2023-03-30T08:53:24.614Z,19.25
2023-03-30T08:56:00.109Z,19.18
2023-03-30T08:58:45.406Z,18.98
2023-03-30T09:01:21.715Z,18.71
2023-03-30T09:04:19.585Z,18.48
2023-03-30T09:06:59.666Z,18.35
2023-03-30T09:09:29.529Z,18.27
2023-03-30T09:12:02.842Z,18.09
2023-03-30T09:14:36.592Z,18.03
2023-03-30T09:17:18.939Z,17.86
2023-03-30T09:19:51.100Z,17.88
2023-03-30T09:22:19.035Z,17.85
2023-03-30T09:24:46.553Z,17.87
2023-03-30T09:27:27.272Z,17.84
2023-03-30T09:29:56.061Z,17.75
2023-03-30T09:32:34.327Z,17.70
2023-03-30T09:35:12.208Z,17.58
2023-03-30T09:37:39.111Z,17.62
2023-03-30T09:40:21.344Z,17.60
2023-03-30T09:42:55.687Z,17.52
2023-03-30T09:45:30.733Z,17.47
2023-03-30T09:48:08.906Z,17.56
2023-03-30T09:50:44.593Z,17.57
2023-03-30T09:53:27.121Z,17.52
2023-03-30T09:56:12.917Z,17.63
2023-03-30T09:58:39.704Z,17.51
2023-03-30T10:01:08.624Z,17.65
2023-03-30T10:03:36.200Z,17.60
2023-03-30T10:06:03.343Z,17.50
2023-03-30T10:08:31.007Z,17.37
2023-03-30T10:10:59.025Z,17.35
2023-03-30T10:13:39.236Z,17.19
2023-03-30T10:16:08.728Z,17.24
2023-03-30T10:18:44.260Z,17.20
2023-03-30T10:21:13.960Z,17.26
2023-03-30T10:23:43.341Z,17.23
2023-03-30T10:26:17.861Z,17.27
2023-03-30T10:29:01.412Z,17.26
2023-03-30T10:31:28.538Z,17.22
2023-03-30T10:33:58.423Z,17.26
2023-03-30T10:36:31.173Z,17.35
2023-03-30T10:39:25.944Z,17.35
2023-03-30T10:41:53.175Z,17.23
2023-03-30T10:44:29.002Z,17.48
2023-03-30T10:47:08.376Z,17.79
2023-03-30T10:49:44.830Z,18.09
2023-03-30T10:52:51.996Z,18.55
2023-03-30T10:55:33.715Z,18.41
2023-03-30T10:58:09.932Z,18.31
2023-03-30T11:00:51.282Z,18.28
2023-03-30T11:03:22.442Z,18.00
2023-03-30T11:05:51.910Z,17.78
2023-03-30T11:08:23.405Z,17.88
2023-03-30T11:10:54.032Z,18.00
2023-03-30T11:13:27.944Z,18.11
2023-03-30T11:15:57.573Z,18.12
2023-03-30T11:18:44.719Z,18.36
2023-03-30T11:21:22.212Z,18.43
2023-03-30T11:23:54.905Z,18.43
2023-03-30T11:26:34.903Z,18.52
2023-03-30T11:29:37.119Z,18.60
2023-03-30T11:32:38.609Z,18.45
2023-03-30T11:35:20.957Z,18.35
2023-03-30T11:38:01.786Z,18.47
2023-03-30T11:40:34.698Z,18.76
2023-03-30T11:43:01.880Z,19.08
2023-03-30T11:45:36.492Z,19.32
2023-03-30T11:48:13.409Z,19.51
2023-03-30T11:51:02.248Z,19.76
2023-03-30T11:53:35.783Z,20.66
2023-03-30T11:56:17.583Z,21.99
2023-03-30T11:58:48.058Z,23.05
2023-03-30T12:01:33.643Z,24.91
2023-03-30T12:04:08.499Z,25.85
2023-03-30T12:06:39.019Z,26.83
2023-03-30T12:09:06.216Z,27.56
2023-03-30T12:11:54.926Z,28.80
2023-03-30T12:14:43.242Z,29.08
2023-03-30T12:17:45.684Z,30.56
2023-03-30T12:20:22.178Z,30.70
2023-03-30T12:23:10.840Z,31.37
2023-03-30T12:26:04.183Z,31.79
2023-03-30T12:31:56.250Z,28.25
2023-03-30T12:34:24.683Z,27.17
2023-03-30T12:36:56.448Z,26.30
2023-03-30T12:39:31.341Z,25.87
2023-03-30T12:42:07.412Z,26.14
2023-03-30T12:44:42.977Z,25.66
2023-03-30T12:47:31.295Z,25.85
2023-03-30T12:50:02.666Z,26.37
2023-03-30T12:53:04.071Z,26.32
2023-03-30T12:55:41.949Z,26.01
2023-03-30T12:58:50.397Z,26.04
2023-03-30T13:01:40.491Z,26.13
2023-03-30T13:04:10.890Z,25.67
2023-03-30T13:06:40.772Z,25.18
2023-03-30T13:09:16.790Z,24.92
2023-03-30T13:11:46.342Z,24.07
2023-03-30T13:14:17.270Z,23.43
2023-03-30T13:16:53.492Z,23.18
2023-03-30T13:19:32.604Z,22.77
2023-03-30T13:22:11.910Z,22.26
2023-03-30T13:24:42.028Z,21.88
2023-03-30T13:27:14.823Z,21.54
2023-03-30T13:29:42.768Z,21.46
2023-03-30T13:32:20.778Z,21.17
2023-03-30T13:35:06.039Z,21.03
2023-03-30T13:38:01.701Z,20.81
2023-03-30T13:40:39.622Z,20.66
2023-03-30T13:43:22.634Z,20.31
2023-03-30T13:46:09.253Z,20.14
2023-03-30T13:48:47.582Z,19.36
2023-03-30T13:51:20.849Z,18.92
2023-03-30T13:53:53.357Z,18.26
2023-03-30T13:56:21.233Z,17.57
2023-03-30T13:59:03.908Z,16.95
2023-03-30T14:01:31.029Z,16.78
2023-03-30T14:04:03.909Z,16.62
2023-03-30T14:06:34.570Z,16.59
2023-03-30T14:09:05.690Z,16.45
2023-03-30T14:11:47.321Z,16.35
2023-03-30T14:14:30.028Z,16.43
2023-03-30T14:17:01.042Z,16.40
2023-03-30T14:19:29.843Z,16.25
2023-03-30T14:21:59.911Z,16.16
2023-03-30T14:24:34.682Z,16.11
2023-03-30T14:27:03.735Z,16.14
2023-03-30T14:29:32.495Z,15.60
2023-03-30T14:32:08.239Z,15.84
2023-03-30T14:34:36.244Z,15.69
2023-03-30T14:37:08.702Z,15.84
2023-03-30T14:39:41.248Z,15.93
2023-03-30T14:42:19.133Z,15.95
2023-03-30T14:44:48.487Z,15.97
2023-03-30T14:47:16.662Z,15.88
2023-03-30T14:49:44.494Z,15.72
2023-03-30T14:52:18.968Z,15.78
2023-03-30T14:54:58.157Z,15.72
2023-03-30T14:57:34.946Z,15.57
2023-03-30T15:00:11.341Z,15.52
2023-03-30T15:02:41.766Z,15.24
2023-03-30T15:05:09.306Z,15.31
2023-03-30T15:07:36.617Z,15.26
2023-03-30T15:10:04.470Z,15.26
2023-03-30T15:12:39.254Z,15.15
2023-03-30T15:15:08.540Z,15.08
2023-03-30T15:17:36.906Z,15.10
2023-03-30T15:20:07.596Z,15.10
2023-03-30T15:22:40.348Z,15.01
2023-03-30T15:25:11.673Z,15.10
2023-03-30T15:27:39.690Z,15.13
2023-03-30T15:30:21.871Z,15.00
2023-03-30T15:32:48.765Z,15.04
2023-03-30T15:35:15.428Z,15.04
2023-03-30T15:38:13.884Z,15.07
2023-03-30T15:40:43.294Z,15.06
2023-03-30T15:43:27.271Z,15.05
2023-03-30T15:46:15.584Z,14.98
2023-03-30T15:48:50.550Z,14.96
2023-03-30T15:51:27.588Z,14.94
2023-03-30T15:54:15.784Z,14.81
2023-03-30T15:57:11.359Z,14.66
2023-03-30T15:59:43.161Z,14.69
2023-03-30T16:02:40.274Z,14.69
2023-03-30T16:05:12.643Z,14.81
2023-03-30T16:07:42.136Z,14.87
2023-03-30T16:10:16.849Z,14.91
2023-03-30T16:12:44.947Z,14.99
2023-03-30T16:15:17.251Z,15.06
2023-03-30T16:17:44.037Z,15.16
2023-03-30T16:20:21.441Z,15.12
2023-03-30T16:22:48.624Z,15.01
2023-03-30T16:25:16.919Z,15.06
2023-03-30T16:27:44.255Z,15.14
2023-03-30T16:30:29.555Z,15.21
2023-03-30T16:32:56.540Z,15.16
2023-03-30T16:35:23.537Z,15.21
2023-03-30T16:37:50.750Z,15.17
2023-03-30T16:40:41.535Z,15.13
2023-03-30T16:43:09.643Z,15.06
2023-03-30T16:45:36.623Z,15.14
2023-03-30T16:48:03.790Z,15.00
2023-03-30T16:50:37.863Z,15.12
2023-03-30T16:53:05.860Z,15.17
2023-03-30T16:55:33.172Z,15.13
2023-03-30T16:57:59.999Z,15.20
2023-03-30T17:00:30.138Z,15.13
2023-03-30T17:02:57.294Z,15.10
2023-03-30T17:05:24.526Z,15.08
2023-03-30T17:07:55.113Z,15.11
2023-03-30T17:10:31.335Z,15.06
2023-03-30T17:12:58.336Z,14.96
2023-03-30T17:15:26.142Z,14.90
2023-03-30T17:17:53.775Z,14.89
2023-03-30T17:20:21.244Z,14.89
2023-03-30T17:22:48.749Z,14.75
2023-03-30T17:25:15.701Z,14.63
2023-03-30T17:27:43.198Z,14.66
2023-03-30T17:30:23.814Z,14.59
2023-03-30T17:32:51.328Z,14.58
2023-03-30T17:35:18.722Z,14.51
2023-03-30T17:37:46.208Z,14.48
2023-03-30T17:40:16.816Z,14.45
2023-03-30T17:42:44.164Z,14.31
2023-03-30T17:45:12.581Z,14.28
2023-03-30T17:47:41.560Z,14.26
2023-03-30T17:50:25.659Z,14.22
2023-03-30T17:52:53.513Z,14.19
2023-03-30T17:55:22.709Z,14.18
2023-03-30T17:57:49.637Z,14.20
2023-03-30T18:00:23.471Z,14.05
2023-03-30T18:02:51.938Z,14.00
2023-03-30T18:05:20.526Z,14.08
2023-03-30T18:07:47.874Z,14.05
2023-03-30T18:10:25.109Z,14.04
2023-03-30T18:12:52.951Z,13.93
2023-03-30T18:15:25.456Z,13.93
2023-03-30T18:17:53.024Z,13.91
2023-03-30T18:20:22.280Z,13.69
2023-03-30T18:22:51.415Z,13.66
2023-03-30T18:25:29.699Z,13.70
2023-03-30T18:28:00.871Z,13.61
2023-03-30T18:30:38.408Z,13.67
2023-03-30T18:33:05.811Z,13.65
2023-03-30T18:35:34.780Z,13.67
2023-03-30T18:38:02.435Z,13.64
2023-03-30T18:40:45.578Z,13.59
2023-03-30T18:43:13.725Z,13.62
2023-03-30T18:45:43.008Z,13.60
2023-03-30T18:48:14.707Z,13.59
2023-03-30T18:50:47.292Z,13.55
2023-03-30T18:53:26.398Z,13.44
2023-03-30T18:55:54.964Z,13.41
2023-03-30T18:58:24.441Z,13.47
2023-03-30T19:00:53.319Z,13.41
2023-03-30T19:03:21.863Z,13.42
2023-03-30T19:05:49.516Z,13.47
2023-03-30T19:08:18.884Z,13.29
2023-03-30T19:10:49.371Z,13.31
2023-03-30T19:13:18.543Z,13.41
2023-03-30T19:15:46.391Z,13.39
2023-03-30T19:18:14.084Z,12.94
2023-03-30T19:20:42.056Z,13.18
2023-03-30T19:23:11.885Z,13.06
2023-03-30T19:25:39.145Z,12.56
2023-03-30T19:28:06.788Z,12.74
2023-03-30T19:30:37.482Z,12.96
2023-03-30T19:33:12.410Z,13.07
2023-03-30T19:35:41.171Z,12.87
2023-03-30T19:38:09.685Z,12.66
2023-03-30T19:40:40.176Z,12.85
2023-03-30T19:43:07.955Z,12.78
2023-03-30T19:45:35.031Z,12.54
2023-03-30T19:48:02.073Z,12.73
2023-03-30T19:50:30.410Z,12.85
2023-03-30T19:52:57.734Z,12.88
2023-03-30T19:55:24.619Z,12.97
2023-03-30T19:57:51.509Z,13.06
2023-03-30T20:00:19.986Z,12.98
2023-03-30T20:02:49.602Z,12.97
2023-03-30T20:05:17.072Z,12.97
2023-03-30T20:07:44.913Z,12.89
2023-03-30T20:10:14.922Z,12.85
2023-03-30T20:12:42.318Z,12.76
2023-03-30T20:15:10.061Z,12.68
2023-03-30T20:17:38.964Z,12.67
2023-03-30T20:20:08.908Z,12.64
2023-03-30T20:22:37.011Z,12.64
2023-03-30T20:25:05.922Z,12.54
2023-03-30T20:27:33.961Z,12.50
2023-03-30T20:30:01.273Z,12.33
2023-03-30T20:32:28.409Z,12.45
2023-03-30T20:34:55.456Z,12.42
2023-03-30T20:37:22.386Z,12.48
2023-03-30T20:39:52.123Z,12.51
2023-03-30T20:42:26.492Z,12.44
2023-03-30T20:44:53.722Z,12.42
2023-03-30T20:47:26.261Z,12.45
2023-03-30T20:49:55.990Z,12.34
2023-03-30T20:52:24.140Z,12.22
2023-03-30T20:54:52.769Z,12.27
2023-03-30T20:57:20.913Z,12.18
2023-03-30T20:59:48.385Z,12.25
2023-03-30T21:02:15.888Z,12.23
2023-03-30T21:04:44.726Z,12.20
2023-03-30T21:07:12.516Z,12.25
2023-03-30T21:09:39.607Z,12.23
2023-03-30T21:12:07.960Z,12.20
2023-03-30T21:14:34.793Z,12.02
2023-03-30T21:17:01.949Z,12.08
2023-03-30T21:19:29.061Z,12.01
2023-03-30T21:21:56.056Z,12.05
2023-03-30T21:24:22.882Z,12.11
2023-03-30T21:26:51.053Z,12.12
2023-03-30T21:29:18.370Z,12.21
2023-03-30T21:31:45.327Z,12.20
2023-03-30T21:34:13.138Z,12.34
2023-03-30T21:36:41.175Z,12.19
2023-03-30T21:39:08.459Z,12.24
2023-03-30T21:41:35.470Z,12.30
2023-03-30T21:44:02.485Z,12.26
2023-03-30T21:46:29.394Z,12.24
2023-03-30T21:48:56.334Z,12.32
2023-03-30T21:51:28.720Z,12.27
2023-03-30T21:53:57.224Z,12.34
2023-03-30T21:56:26.316Z,12.31
2023-03-30T21:58:53.441Z,12.20
2023-03-30T22:01:20.965Z,12.31
2023-03-30T22:03:48.020Z,12.28
2023-03-30T22:06:17.452Z,12.24
2023-03-30T22:08:45.642Z,12.10
2023-03-30T22:11:14.721Z,12.21
2023-03-30T22:13:41.683Z,12.21
2023-03-30T22:16:22.764Z,12.26
2023-03-30T22:18:50.545Z,12.30
2023-03-30T22:21:24.777Z,12.25
2023-03-30T22:23:52.986Z,12.21
2023-03-30T22:26:19.957Z,12.23
2023-03-30T22:28:46.851Z,12.27
2023-03-30T22:31:15.173Z,12.35
2023-03-30T22:33:44.373Z,12.23
2023-03-30T22:36:20.683Z,12.27
2023-03-30T22:38:51.475Z,12.18
2023-03-30T22:41:24.074Z,12.22
2023-03-30T22:43:52.121Z,12.36
2023-03-30T22:46:19.095Z,12.27
2023-03-30T22:48:45.897Z,12.30
2023-03-30T22:51:14.515Z,12.14
2023-03-30T22:53:41.470Z,12.25
2023-03-30T22:56:08.549Z,12.32
2023-03-30T22:58:36.536Z,12.34
2023-03-30T23:01:07.269Z,12.31
2023-03-30T23:03:34.212Z,12.38
2023-03-30T23:06:01.935Z,12.39
2023-03-30T23:08:30.318Z,12.19
2023-03-30T23:10:57.713Z,12.17
2023-03-30T23:13:24.524Z,12.30
2023-03-30T23:15:52.244Z,12.40
2023-03-30T23:18:19.050Z,12.45
2023-03-30T23:20:46.934Z,12.43
2023-03-30T23:23:14.525Z,12.41
2023-03-30T23:25:49.590Z,12.47
2023-03-30T23:28:16.928Z,12.38
2023-03-30T23:30:45.124Z,12.38
2023-03-30T23:33:12.325Z,12.28
2023-03-30T23:35:40.336Z,12.25
2023-03-30T23:38:10.329Z,12.33
2023-03-30T23:40:37.132Z,12.45
2023-03-30T23:43:03.919Z,12.31
2023-03-30T23:45:30.683Z,12.31
2023-03-30T23:47:57.538Z,12.31
2023-03-30T23:50:25.334Z,12.37
2023-03-30T23:52:52.819Z,12.32
2023-03-30T23:55:19.656Z,12.34
2023-03-30T23:57:46.982Z,12.19
